createdAt,value
2019-06-10T00:01:21.390Z,23.17
2019-06-10T00:03:45.755Z,23.11
2019-06-10T00:06:12.057Z,23.20
2019-06-10T00:08:38.388Z,23.28
2019-06-10T00:11:06.167Z,23.34
2019-06-10T00:13:31.419Z,23.38
2019-06-10T00:15:57.334Z,23.39
2019-06-10T00:18:38.311Z,23.40
2019-06-10T00:20:51.307Z,23.37
2019-06-10T00:23:16.284Z,23.38
2019-06-10T00:25:42.589Z,23.33
2019-06-10T00:28:09.560Z,23.29
2019-06-10T00:30:35.240Z,23.23
2019-06-10T00:33:03.538Z,23.23
2019-06-10T00:35:27.883Z,23.16
2019-06-10T00:37:54.189Z,23.06
2019-06-10T00:40:21.533Z,22.97
2019-06-10T00:42:46.829Z,22.99
2019-06-10T00:45:17.849Z,22.93
2019-06-10T00:47:41.287Z,22.88
2019-06-10T00:50:08.510Z,22.90
2019-06-10T00:52:32.100Z,22.92
2019-06-10T00:54:58.404Z,22.90
2019-06-10T00:57:24.728Z,22.88
2019-06-10T00:59:51.032Z,22.87
2019-06-10T01:02:17.359Z,22.71
2019-06-10T01:04:43.669Z,22.68
2019-06-10T01:07:12.733Z,22.76
2019-06-10T01:09:36.322Z,22.76
2019-06-10T01:12:02.847Z,22.77
2019-06-10T01:14:28.950Z,22.69
2019-06-10T01:16:55.257Z,22.65
2019-06-10T01:19:22.015Z,22.62
2019-06-10T01:21:47.893Z,22.62
2019-06-10T01:24:14.824Z,22.64
2019-06-10T01:26:41.198Z,22.63
2019-06-10T01:29:07.652Z,22.55
2019-06-10T01:31:33.162Z,22.39
2019-06-10T01:34:00.746Z,22.24
2019-06-10T01:36:25.793Z,22.29
2019-06-10T01:38:52.127Z,22.45
2019-06-10T01:41:18.429Z,22.55
2019-06-10T01:43:44.750Z,22.49
2019-06-10T01:46:12.612Z,22.48
2019-06-10T01:48:44.333Z,22.58
2019-06-10T01:51:03.692Z,22.96
2019-06-10T01:53:31.465Z,22.96
2019-06-10T01:55:56.329Z,22.67
2019-06-10T01:58:23.637Z,22.66
2019-06-10T02:00:50.760Z,23.01
2019-06-10T02:03:17.216Z,23.16
2019-06-10T02:05:42.037Z,22.94
2019-06-10T02:08:08.711Z,22.77
2019-06-10T02:10:34.240Z,22.73
2019-06-10T02:13:01.323Z,22.90
2019-06-10T02:15:26.864Z,22.81
2019-06-10T02:17:53.168Z,22.83
2019-06-10T02:20:22.612Z,22.74
2019-06-10T02:22:45.804Z,22.62
2019-06-10T02:25:13.634Z,22.54
2019-06-10T02:27:38.475Z,22.47
2019-06-10T02:30:15.062Z,22.43
2019-06-10T02:32:37.155Z,22.37
2019-06-10T02:35:14.415Z,22.44
2019-06-10T02:37:31.333Z,22.38
2019-06-10T02:39:50.049Z,22.21
2019-06-10T02:42:19.005Z,22.22
2019-06-10T02:44:44.460Z,22.19
2019-06-10T02:47:08.997Z,22.16
2019-06-10T02:49:52.714Z,22.13
2019-06-10T02:52:03.373Z,22.14
2019-06-10T02:54:31.473Z,22.18
2019-06-10T02:56:54.289Z,22.20
2019-06-10T02:59:26.607Z,22.16
2019-06-10T03:01:46.925Z,22.27
2019-06-10T03:04:13.792Z,22.29
2019-06-10T03:06:40.637Z,22.25
2019-06-10T03:09:05.871Z,22.19
2019-06-10T03:11:36.600Z,22.26
2019-06-10T03:13:58.498Z,22.27
2019-06-10T03:16:25.841Z,22.25
2019-06-10T03:18:52.582Z,22.24
2019-06-10T03:21:17.984Z,22.25
2019-06-10T03:23:43.766Z,22.21
2019-06-10T03:26:12.176Z,22.18
2019-06-10T03:28:36.404Z,22.15
2019-06-10T03:31:05.569Z,22.14
2019-06-10T03:33:39.412Z,22.10
2019-06-10T03:35:55.371Z,22.13
2019-06-10T03:38:23.676Z,22.13
2019-06-10T03:40:48.035Z,22.17
2019-06-10T03:43:14.340Z,22.25
2019-06-10T03:45:42.570Z,22.35
2019-06-10T03:48:07.153Z,22.26
2019-06-10T03:50:33.461Z,22.16
2019-06-10T03:53:01.292Z,22.19
2019-06-10T03:55:27.924Z,22.29
2019-06-10T03:57:52.726Z,22.31
2019-06-10T04:00:19.514Z,22.19
2019-06-10T04:02:45.051Z,22.18
2019-06-10T04:05:13.285Z,22.17
2019-06-10T04:07:37.684Z,22.17
2019-06-10T04:10:04.015Z,22.18
2019-06-10T04:12:32.579Z,22.24
2019-06-10T04:14:56.636Z,22.23
2019-06-10T04:17:25.286Z,22.16
2019-06-10T04:20:02.654Z,22.17
2019-06-10T04:22:15.613Z,22.19
2019-06-10T04:24:43.135Z,22.24
2019-06-10T04:27:08.249Z,22.27
2019-06-10T04:29:34.577Z,22.34
2019-06-10T04:32:02.949Z,22.38
2019-06-10T04:34:29.098Z,22.51
2019-06-10T04:36:53.532Z,22.57
2019-06-10T04:39:20.477Z,22.60
2019-06-10T04:41:46.161Z,22.70
2019-06-10T04:44:13.180Z,22.70
2019-06-10T04:46:38.844Z,22.74
2019-06-10T04:49:05.148Z,22.87
2019-06-10T04:51:32.950Z,22.98
2019-06-10T04:53:57.784Z,23.02
2019-06-10T04:56:26.187Z,23.06
2019-06-10T04:58:52.444Z,23.11
2019-06-10T05:01:16.756Z,23.17
2019-06-10T05:03:43.504Z,23.23
2019-06-10T05:06:09.395Z,23.29
2019-06-10T05:08:35.715Z,23.26
2019-06-10T05:11:03.600Z,23.12
2019-06-10T05:13:29.861Z,23.12
2019-06-10T05:15:54.672Z,23.19
2019-06-10T05:18:23.946Z,23.39
2019-06-10T05:20:57.694Z,23.59
2019-06-10T05:23:13.710Z,23.70
2019-06-10T05:25:40.044Z,23.84
2019-06-10T05:28:06.357Z,23.91
2019-06-10T05:30:34.022Z,24.04
2019-06-10T05:32:59.022Z,24.11
2019-06-10T05:35:26.948Z,24.05
2019-06-10T05:37:52.736Z,23.93
2019-06-10T05:40:17.966Z,23.80
2019-06-10T05:42:44.277Z,23.82
2019-06-10T05:45:12.322Z,23.86
2019-06-10T05:47:36.916Z,24.09
2019-06-10T05:50:03.404Z,24.28
2019-06-10T05:52:29.751Z,24.18
2019-06-10T05:54:55.879Z,24.09
2019-06-10T05:57:23.925Z,24.06
2019-06-10T05:59:48.520Z,24.01
2019-06-10T06:02:14.911Z,24.04
2019-06-10T06:04:42.828Z,24.08
2019-06-10T06:07:07.552Z,24.14
2019-06-10T06:09:35.231Z,24.19
2019-06-10T06:12:02.349Z,24.16
2019-06-10T06:14:27.515Z,24.18
2019-06-10T06:16:53.358Z,24.28
2019-06-10T06:19:19.185Z,24.34
2019-06-10T06:21:47.729Z,24.38
2019-06-10T06:24:12.902Z,24.41
2019-06-10T06:26:39.676Z,24.47
2019-06-10T06:29:04.474Z,24.36
2019-06-10T06:31:32.867Z,24.48
2019-06-10T06:33:57.106Z,24.51
2019-06-10T06:36:23.406Z,24.53
2019-06-10T06:38:49.748Z,24.52
2019-06-10T06:41:16.115Z,24.60
2019-06-10T06:43:45.157Z,24.68
2019-06-10T06:46:08.747Z,24.73
2019-06-10T06:48:38.481Z,24.75
2019-06-10T06:51:05.472Z,24.80
2019-06-10T06:53:33.161Z,24.82
2019-06-10T06:55:55.977Z,24.75
2019-06-10T06:58:20.319Z,24.67
2019-06-10T07:01:00.519Z,24.70
2019-06-10T07:03:12.959Z,24.84
2019-06-10T07:05:40.447Z,25.00
2019-06-10T07:08:05.591Z,25.13
2019-06-10T07:10:33.212Z,25.23
2019-06-10T07:12:58.241Z,25.37
2019-06-10T07:15:24.578Z,25.41
2019-06-10T07:17:52.633Z,25.47
2019-06-10T07:20:17.241Z,25.54
2019-06-10T07:22:46.681Z,25.59
2019-06-10T07:25:12.204Z,25.92
2019-06-10T07:27:38.360Z,26.15
2019-06-10T07:30:11.231Z,26.19
2019-06-10T07:32:28.853Z,26.20
2019-06-10T07:34:55.174Z,26.23
2019-06-10T07:37:23.136Z,26.28
2019-06-10T07:39:47.799Z,26.33
2019-06-10T07:42:14.127Z,26.36
2019-06-10T07:44:43.156Z,26.36
2019-06-10T07:47:06.764Z,26.36
2019-06-10T07:49:33.880Z,26.29
2019-06-10T07:52:12.138Z,26.42
2019-06-10T07:54:25.709Z,26.39
2019-06-10T07:56:53.759Z,26.51
2019-06-10T07:59:18.388Z,26.59
2019-06-10T08:01:51.197Z,26.75
2019-06-10T08:04:12.080Z,26.86
2019-06-10T08:06:37.876Z,26.92
2019-06-10T08:09:03.654Z,27.03
2019-06-10T08:11:29.985Z,27.04
2019-06-10T08:13:56.319Z,27.08
2019-06-10T08:16:23.556Z,27.11
2019-06-10T08:19:15.937Z,27.21
2019-06-10T08:21:15.250Z,27.34
2019-06-10T08:23:44.800Z,27.48
2019-06-10T08:26:07.889Z,27.56
2019-06-10T08:28:35.419Z,27.62
2019-06-10T08:31:03.375Z,27.64
2019-06-10T08:33:26.877Z,27.72
2019-06-10T08:35:59.864Z,27.81
2019-06-10T08:38:19.502Z,27.68
2019-06-10T08:40:48.333Z,27.63
2019-06-10T08:43:13.334Z,27.75
2019-06-10T08:45:38.922Z,27.84
2019-06-10T08:48:04.760Z,27.77
2019-06-10T08:50:33.697Z,27.70
2019-06-10T08:53:12.739Z,27.77
2019-06-10T08:55:23.760Z,27.92
2019-06-10T08:57:51.638Z,28.06
2019-06-10T09:00:18.744Z,28.18
2019-06-10T09:02:45.843Z,28.30
2019-06-10T09:05:09.102Z,28.35
2019-06-10T09:07:35.435Z,28.37
2019-06-10T09:10:02.966Z,28.25
2019-06-10T09:12:33.154Z,28.19
2019-06-10T09:14:54.374Z,28.14
2019-06-10T09:17:22.826Z,28.04
2019-06-10T09:19:49.191Z,27.97
2019-06-10T09:22:13.359Z,28.02
2019-06-10T09:24:40.878Z,27.97
2019-06-10T09:27:06.052Z,28.01
2019-06-10T09:29:32.931Z,28.01
2019-06-10T09:31:58.684Z,27.94
2019-06-10T09:34:25.035Z,27.80
2019-06-10T09:36:56.378Z,27.66
2019-06-10T09:39:17.677Z,27.51
2019-06-10T09:41:52.301Z,27.37
2019-06-10T09:44:12.652Z,27.29
2019-06-10T09:46:36.637Z,27.25
2019-06-10T09:49:02.975Z,27.27
2019-06-10T09:51:29.286Z,27.24
2019-06-10T09:54:03.693Z,27.20
2019-06-10T09:56:23.028Z,27.11
2019-06-10T09:58:50.844Z,27.01
2019-06-10T10:01:14.617Z,26.92
2019-06-10T10:03:42.379Z,26.83
2019-06-10T10:06:14.068Z,26.75
2019-06-10T10:08:33.602Z,26.66
2019-06-10T10:10:59.949Z,26.61
2019-06-10T10:13:26.700Z,26.50
2019-06-10T10:15:54.199Z,26.41
2019-06-10T10:18:18.906Z,26.29
2019-06-10T10:20:48.059Z,26.26
2019-06-10T10:23:13.672Z,26.33
2019-06-10T10:25:37.849Z,26.37
2019-06-10T10:28:04.181Z,26.45
2019-06-10T10:30:33.055Z,26.48
2019-06-10T10:32:56.829Z,26.44
2019-06-10T10:35:24.263Z,26.47
2019-06-10T10:37:51.609Z,26.44
2019-06-10T10:40:15.784Z,26.30
2019-06-10T10:42:47.856Z,26.30
2019-06-10T10:45:08.405Z,26.38
2019-06-10T10:47:34.732Z,26.41
2019-06-10T10:50:02.867Z,26.32
2019-06-10T10:52:27.383Z,26.23
2019-06-10T10:54:54.362Z,26.29
2019-06-10T10:57:23.013Z,26.38
2019-06-10T10:59:47.743Z,26.42
2019-06-10T11:02:12.738Z,26.42
2019-06-10T11:04:38.989Z,26.43
2019-06-10T11:07:05.296Z,26.40
2019-06-10T11:09:33.036Z,26.28
2019-06-10T11:11:57.937Z,26.22
2019-06-10T11:14:24.236Z,26.07
2019-06-10T11:16:54.551Z,26.10
2019-06-10T11:19:16.873Z,26.09
2019-06-10T11:21:43.346Z,26.11
2019-06-10T11:24:09.541Z,26.02
2019-06-10T11:26:35.871Z,25.95
2019-06-10T11:29:03.057Z,25.93
2019-06-10T11:31:28.498Z,25.90
2019-06-10T11:33:58.688Z,25.95
2019-06-10T11:36:22.835Z,25.98
2019-06-10T11:38:48.583Z,25.89
2019-06-10T11:41:13.864Z,25.79
2019-06-10T11:43:42.657Z,25.86
2019-06-10T11:46:07.790Z,25.84
2019-06-10T11:48:33.045Z,25.90
2019-06-10T11:51:00.902Z,25.97
2019-06-10T11:53:28.622Z,25.97
2019-06-10T11:55:51.818Z,25.90
2019-06-10T11:58:18.053Z,25.99
2019-06-10T12:00:44.379Z,26.02
2019-06-10T12:03:13.026Z,26.08
2019-06-10T12:05:37.018Z,26.12
2019-06-10T12:08:03.348Z,26.26
2019-06-10T12:10:29.649Z,26.41
2019-06-10T12:12:58.906Z,26.53
2019-06-10T12:15:22.767Z,26.63
2019-06-10T12:17:53.572Z,26.70
2019-06-10T12:20:14.939Z,26.73
2019-06-10T12:22:42.360Z,26.81
2019-06-10T12:25:28.502Z,26.84
2019-06-10T12:27:33.885Z,26.87
2019-06-10T12:30:04.284Z,26.90
2019-06-10T12:32:26.541Z,26.93
2019-06-10T12:34:53.231Z,26.97
2019-06-10T12:37:19.193Z,27.00
2019-06-10T12:39:45.497Z,27.05
2019-06-10T12:42:14.145Z,27.10
2019-06-10T12:44:38.162Z,27.16
2019-06-10T12:47:07.858Z,27.20
2019-06-10T12:49:32.038Z,27.27
2019-06-10T12:51:57.465Z,27.33
2019-06-10T12:54:23.440Z,27.38
2019-06-10T12:56:49.770Z,27.27
2019-06-10T12:59:16.070Z,27.47
2019-06-10T13:01:44.847Z,27.51
2019-06-10T13:04:09.584Z,27.55
2019-06-10T13:06:35.055Z,27.58
2019-06-10T13:09:02.620Z,27.66
2019-06-10T13:11:27.668Z,27.70
2019-06-10T13:13:54.004Z,27.72
2019-06-10T13:16:20.318Z,27.75
2019-06-10T13:18:46.636Z,27.78
2019-06-10T13:21:17.258Z,27.80
2019-06-10T13:23:39.274Z,27.82
2019-06-10T13:26:10.856Z,27.82
2019-06-10T13:28:32.641Z,27.83
2019-06-10T13:30:59.097Z,27.81
2019-06-10T13:33:24.550Z,27.79
2019-06-10T13:35:53.507Z,27.77
2019-06-10T13:38:17.184Z,27.74
2019-06-10T13:40:43.573Z,27.71
2019-06-10T13:43:12.241Z,27.69
2019-06-10T13:45:36.130Z,27.66
2019-06-10T13:48:05.860Z,27.64
2019-06-10T13:50:28.788Z,27.62
2019-06-10T13:52:55.094Z,27.59
2019-06-10T13:55:22.323Z,27.57
2019-06-10T13:57:47.735Z,27.54
2019-06-10T14:00:14.642Z,27.52
2019-06-10T14:02:42.983Z,27.51
2019-06-10T14:05:10.284Z,27.48
2019-06-10T14:07:33.020Z,27.48
2019-06-10T14:10:00.409Z,27.45
2019-06-10T14:12:26.315Z,27.43
2019-06-10T14:14:53.320Z,27.42
2019-06-10T14:17:19.572Z,27.40
2019-06-10T14:19:44.631Z,27.40
2019-06-10T14:22:12.189Z,27.40
2019-06-10T14:24:37.269Z,27.28
2019-06-10T14:27:06.850Z,27.13
2019-06-10T14:29:29.920Z,26.98
2019-06-10T14:31:56.229Z,26.89
2019-06-10T14:34:22.649Z,26.76
2019-06-10T14:36:48.858Z,26.75
2019-06-10T14:39:16.029Z,26.86
2019-06-10T14:41:43.021Z,26.80
2019-06-10T14:44:08.679Z,26.69
2019-06-10T14:46:34.142Z,26.70
2019-06-10T14:49:02.315Z,26.67
2019-06-10T14:51:26.768Z,26.59
2019-06-10T14:53:53.140Z,26.61
2019-06-10T14:56:19.847Z,26.39
2019-06-10T14:58:45.785Z,26.11
2019-06-10T15:01:18.832Z,25.88
2019-06-10T15:03:38.425Z,25.82
2019-06-10T15:06:04.731Z,25.93
2019-06-10T15:08:32.255Z,26.13
2019-06-10T15:10:57.367Z,26.25
2019-06-10T15:13:23.821Z,26.16
2019-06-10T15:15:50.006Z,26.15
2019-06-10T15:18:18.137Z,26.15
2019-06-10T15:20:42.914Z,26.17
2019-06-10T15:23:11.496Z,26.16
2019-06-10T15:25:49.262Z,26.10
2019-06-10T15:28:03.271Z,26.11
2019-06-10T15:30:31.364Z,26.08
2019-06-10T15:32:55.264Z,26.19
2019-06-10T15:35:24.304Z,26.24
2019-06-10T15:37:47.900Z,26.26
2019-06-10T15:40:16.659Z,26.18
2019-06-10T15:42:42.644Z,26.17
2019-06-10T15:45:06.888Z,26.19
2019-06-10T15:47:33.192Z,26.26
2019-06-10T15:49:59.523Z,26.30
2019-06-10T15:52:25.840Z,26.11
2019-06-10T15:54:52.550Z,26.12
2019-06-10T15:57:30.774Z,26.19
2019-06-10T15:59:44.801Z,26.24
2019-06-10T16:02:11.935Z,26.24
2019-06-10T16:04:37.460Z,26.21
2019-06-10T16:07:03.770Z,26.29
2019-06-10T16:09:32.157Z,26.27
2019-06-10T16:11:56.404Z,26.27
2019-06-10T16:14:25.150Z,26.31
2019-06-10T16:16:49.057Z,26.36
2019-06-10T16:19:16.708Z,26.34
2019-06-10T16:21:42.894Z,26.39
2019-06-10T16:24:08.029Z,26.43
2019-06-10T16:26:35.529Z,26.47
2019-06-10T16:29:02.678Z,26.45
2019-06-10T16:31:27.631Z,26.34
2019-06-10T16:33:53.314Z,26.32
2019-06-10T16:36:21.112Z,26.27
2019-06-10T16:38:45.985Z,26.33
2019-06-10T16:41:12.449Z,26.33
2019-06-10T16:43:38.634Z,26.22
2019-06-10T16:46:04.944Z,26.24
2019-06-10T16:48:33.422Z,26.19
2019-06-10T16:50:57.578Z,26.10
2019-06-10T16:53:28.509Z,25.81
2019-06-10T16:55:52.708Z,25.70
2019-06-10T16:58:18.179Z,25.70
2019-06-10T17:00:43.318Z,25.70
2019-06-10T17:03:09.188Z,25.80
2019-06-10T17:05:35.516Z,25.89
2019-06-10T17:08:03.292Z,25.80
2019-06-10T17:10:29.675Z,25.77
2019-06-10T17:12:54.459Z,25.80
2019-06-10T17:15:21.101Z,25.85
2019-06-10T17:17:47.094Z,25.92
2019-06-10T17:20:13.405Z,26.00
2019-06-10T17:22:39.732Z,25.90
2019-06-10T17:25:13.096Z,25.87
2019-06-10T17:27:39.273Z,25.84
2019-06-10T17:30:05.617Z,25.54
2019-06-10T17:32:32.920Z,25.34
2019-06-10T17:34:58.233Z,25.28
2019-06-10T17:37:24.537Z,25.47
2019-06-10T17:39:52.922Z,25.55
2019-06-10T17:42:17.171Z,25.57
2019-06-10T17:44:43.486Z,25.71
2019-06-10T17:47:09.806Z,25.81
2019-06-10T17:49:36.112Z,25.77
2019-06-10T17:52:02.666Z,25.72
2019-06-10T17:54:28.767Z,25.62
2019-06-10T17:56:55.070Z,25.34
2019-06-10T17:59:22.472Z,25.15
2019-06-10T18:01:47.700Z,25.00
2019-06-10T18:04:14.008Z,24.90
2019-06-10T18:06:42.467Z,24.86
2019-06-10T18:09:06.682Z,24.74
2019-06-10T18:11:35.503Z,24.57
2019-06-10T18:13:59.339Z,24.59
2019-06-10T18:16:26.170Z,24.66
2019-06-10T18:18:52.537Z,24.72
2019-06-10T18:21:18.340Z,24.94
2019-06-10T18:23:44.662Z,24.82
2019-06-10T18:26:12.369Z,24.70
2019-06-10T18:28:57.765Z,24.64
2019-06-10T18:31:03.618Z,24.63
2019-06-10T18:33:29.921Z,24.62
2019-06-10T18:35:56.251Z,24.56
2019-06-10T18:38:22.553Z,24.48
2019-06-10T18:40:48.883Z,24.49
2019-06-10T18:43:18.110Z,24.52
2019-06-10T18:45:41.548Z,24.67
2019-06-10T18:48:08.049Z,24.53
2019-06-10T18:50:36.173Z,24.81
2019-06-10T18:53:00.875Z,25.00
2019-06-10T18:55:27.036Z,25.15
2019-06-10T18:57:53.364Z,25.00
2019-06-10T19:00:19.685Z,24.90
2019-06-10T19:02:46.034Z,24.71
2019-06-10T19:05:13.041Z,24.68
2019-06-10T19:07:39.917Z,24.89
2019-06-10T19:10:04.996Z,24.96
2019-06-10T19:12:33.679Z,25.01
2019-06-10T19:14:57.627Z,24.85
2019-06-10T19:17:23.935Z,24.51
2019-06-10T19:19:50.265Z,24.44
2019-06-10T19:22:16.625Z,24.48
2019-06-10T19:24:44.789Z,24.69
2019-06-10T19:27:09.262Z,24.52
2019-06-10T19:29:44.342Z,24.39
2019-06-10T19:32:03.697Z,24.49
2019-06-10T19:34:28.243Z,24.47
2019-06-10T19:36:54.576Z,24.65
2019-06-10T19:39:22.254Z,24.53
2019-06-10T19:41:47.683Z,24.73
2019-06-10T19:44:13.518Z,24.92
2019-06-10T19:46:39.827Z,24.84
2019-06-10T19:49:07.265Z,24.69
2019-06-10T19:51:32.982Z,24.53
2019-06-10T19:53:58.790Z,24.34
2019-06-10T19:56:26.546Z,24.42
2019-06-10T19:58:52.980Z,24.32
2019-06-10T20:01:17.746Z,24.30
2019-06-10T20:03:46.747Z,24.27
2019-06-10T20:06:12.862Z,24.06
2019-06-10T20:08:37.925Z,23.89
2019-06-10T20:11:03.521Z,23.75
2019-06-10T20:13:29.339Z,23.68
2019-06-10T20:15:55.648Z,23.73
2019-06-10T20:18:22.637Z,23.87
2019-06-10T20:20:49.037Z,23.79
2019-06-10T20:23:14.610Z,23.72
2019-06-10T20:25:43.346Z,23.70
2019-06-10T20:28:07.265Z,23.86
2019-06-10T20:30:33.576Z,23.97
2019-06-10T20:33:03.042Z,24.13
2019-06-10T20:35:26.231Z,24.04
2019-06-10T20:37:53.859Z,23.91
2019-06-10T20:40:18.838Z,23.93
2019-06-10T20:42:45.163Z,23.81
2019-06-10T20:45:13.158Z,23.51
2019-06-10T20:47:37.811Z,23.25
2019-06-10T20:50:04.109Z,23.12
2019-06-10T20:52:32.470Z,23.05
2019-06-10T20:54:56.746Z,22.86
2019-06-10T20:57:23.077Z,22.69
2019-06-10T20:59:49.867Z,22.52
2019-06-10T21:02:15.709Z,22.71
2019-06-10T21:04:44.061Z,22.90
2019-06-10T21:07:08.340Z,23.04
2019-06-10T21:09:34.650Z,23.24
2019-06-10T21:12:02.097Z,23.45
2019-06-10T21:14:27.369Z,23.63
2019-06-10T21:16:53.778Z,23.52
2019-06-10T21:19:20.024Z,23.41
2019-06-10T21:21:48.655Z,23.18
2019-06-10T21:24:12.715Z,23.00
2019-06-10T21:26:38.980Z,22.95
2019-06-10T21:29:05.302Z,23.17
2019-06-10T21:31:32.570Z,23.58
2019-06-10T21:33:57.933Z,23.74
2019-06-10T21:36:24.236Z,23.63
2019-06-10T21:38:51.839Z,23.38
2019-06-10T21:41:16.875Z,23.22
2019-06-10T21:43:49.383Z,23.38
2019-06-10T21:46:09.519Z,23.36
2019-06-10T21:48:35.822Z,23.40
2019-06-10T21:51:02.156Z,23.05
2019-06-10T21:53:28.460Z,22.95
2019-06-10T21:55:55.311Z,22.98
2019-06-10T21:58:22.501Z,22.91
2019-06-10T22:00:55.681Z,22.78
2019-06-10T22:03:13.739Z,22.65
2019-06-10T22:05:42.454Z,22.52
2019-06-10T22:08:06.369Z,22.42
2019-06-10T22:10:33.577Z,22.38
2019-06-10T22:12:59.006Z,22.39
2019-06-10T22:15:25.306Z,22.34
2019-06-10T22:17:53.351Z,22.34
2019-06-10T22:20:17.930Z,22.31
2019-06-10T22:22:44.444Z,22.31
2019-06-10T22:25:13.012Z,22.32
2019-06-10T22:27:36.876Z,22.31
2019-06-10T22:30:10.943Z,22.31
2019-06-10T22:32:29.510Z,22.36
2019-06-10T22:34:57.020Z,22.38
2019-06-10T22:37:23.781Z,22.38
2019-06-10T22:39:48.438Z,22.34
2019-06-10T22:42:14.738Z,22.33
2019-06-10T22:44:42.353Z,22.33
2019-06-10T22:47:07.362Z,22.22
2019-06-10T22:49:33.684Z,22.14
2019-06-10T22:52:00.381Z,22.13
2019-06-10T22:54:26.305Z,22.03
2019-06-10T22:56:56.230Z,21.92
2019-06-10T22:59:18.931Z,21.90
2019-06-10T23:01:45.268Z,21.92
2019-06-10T23:04:13.432Z,21.93
2019-06-10T23:06:37.878Z,21.87
2019-06-10T23:09:04.198Z,21.89
2019-06-10T23:11:32.333Z,21.91
2019-06-10T23:13:58.077Z,21.92
2019-06-10T23:16:23.141Z,21.88
2019-06-10T23:18:49.446Z,21.88
2019-06-10T23:21:15.772Z,21.87
2019-06-10T23:23:43.125Z,21.85
2019-06-10T23:26:08.394Z,21.87
2019-06-10T23:28:34.700Z,21.91
2019-06-10T23:31:02.417Z,21.84
2019-06-10T23:33:27.336Z,21.86
2019-06-10T23:35:54.520Z,21.80
2019-06-10T23:38:19.976Z,21.76
2019-06-10T23:40:46.282Z,21.78
2019-06-10T23:43:13.192Z,21.83
2019-06-10T23:45:38.932Z,21.90
2019-06-10T23:48:05.295Z,21.88
2019-06-10T23:50:32.898Z,21.84
2019-06-10T23:53:01.005Z,21.84
2019-06-10T23:55:24.191Z,21.82
2019-06-10T23:57:50.511Z,21.87
